Auburn, CA

11:10 AM PST on December 07, 2019 (GMT -0800)
Auburn Municipal

Weather History for KAUN - August, 2019

Change the Weather History Date:

Friday, August 16, 2019

  Actual Average Record
Temperature  
Mean Temperature 83 °F -  
Max Temperature 98 °F 89 °F 105 °F (1951)
Min Temperature 68 °F 60 °F 49 °F (1949)
Cooling Degree Days 18    
Growing Degree Days 33 (Base 50)    
Moisture  
Dew Point 51 °F    
Average Humidity 32    
Maximum Humidity 52    
Minimum Humidity 18    
Precipitation  
Precipitation 0.00 in - - ()
Sea Level Pressure  
Sea Level Pressure 29.87 in    
Wind  
Wind Speed 5 mph ()    
Max Wind Speed 10 mph    
Max Gust Speed 15 mph    
Visibility 9.8 miles    
Events      
Averages and records for this station are not official NWS values.
T = Trace of Precipitation, MM = Missing Value Source: Averaged Metar Reports

Daily Weather History Graph

Daily Weather History Graph

Search for Another Location

Airport or City:

Astronomy

Aug. 16, 2019 Rise Set
Actual Time 6:18 AM PDT 7:57 PM PDT
Civil Twilight 5:50 AM PDT 8:26 PM PDT
Nautical Twilight 5:15 AM PDT 9:00 PM PDT
Astronomical Twilight 4:39 AM PDT 9:36 PM PDT
Moon 9:00 PM PDT (8/16) 7:15 AM PDT (8/16)
Length of Visible Light 14h 36m
Length of Day
13h 39m
Full, 99% of the Moon is Illuminated
Aug 16
Full
Aug 23
Last Quarter
Aug 30
New
Sep 5
First Quarter
Sep 13
Full

Hourly Weather History & Observations

Time (PDT) Temp. Heat Index Dew Point Humidity Pressure Visibility Wind Dir Wind Speed Gust Speed Precip Events Conditions
12:15 AM 80.6 °F - 51.8 °F 37% 29.91 in 10.0 mi East 9.2 mph - N/A   Clear
12:35 AM 80.6 °F - 51.8 °F 37% 29.91 in 10.0 mi East 8.1 mph - N/A   Clear
12:55 AM 78.8 °F - 51.8 °F 39% 29.91 in 10.0 mi East 9.2 mph - N/A   Clear
1:15 AM 78.8 °F - 51.8 °F 39% 29.91 in 10.0 mi East 9.2 mph - N/A   Clear
1:35 AM 78.8 °F - 51.8 °F 39% 29.90 in 10.0 mi East 10.4 mph - N/A   Clear
1:55 AM 78.8 °F - 51.8 °F 39% 29.90 in 10.0 mi East 10.4 mph - N/A   Clear
2:15 AM 78.8 °F - 50.0 °F 36% 29.89 in 10.0 mi East 9.2 mph - N/A   Clear
2:35 AM 78.8 °F - 50.0 °F 36% 29.89 in 10.0 mi East 9.2 mph - N/A   Clear
2:55 AM 78.8 °F - 50.0 °F 36% 29.89 in 10.0 mi East 9.2 mph - N/A   Clear
3:15 AM 78.8 °F - 50.0 °F 36% 29.89 in 10.0 mi East 9.2 mph - N/A   Clear
3:35 AM 78.8 °F - 50.0 °F 36% 29.89 in 10.0 mi East 10.4 mph - N/A   Clear
3:55 AM 77.0 °F - 50.0 °F 39% 29.89 in 10.0 mi East 10.4 mph - N/A   Clear
4:15 AM 77.0 °F - 50.0 °F 39% 29.89 in 10.0 mi East 9.2 mph - N/A   Clear
4:35 AM 77.0 °F - 50.0 °F 39% 29.89 in 10.0 mi East 10.4 mph - N/A   Clear
5:15 AM 77.0 °F - 50.0 °F 39% 29.89 in 10.0 mi East 9.2 mph - N/A   Clear
5:35 AM 77.0 °F - 48.2 °F 36% 29.89 in 10.0 mi East 10.4 mph - N/A   Clear
5:55 AM 77.0 °F - 48.2 °F 36% 29.89 in 10.0 mi ENE 4.6 mph 12.7 mph N/A   Clear
6:15 AM 71.6 °F - 50.0 °F 46% 29.90 in 10.0 mi Calm Calm - N/A   Clear
6:35 AM 68.0 °F - 50.0 °F 52% 29.91 in 10.0 mi Calm Calm - N/A   Clear
6:55 AM 68.0 °F - 50.0 °F 52% 29.91 in 10.0 mi Calm Calm - N/A   Clear
7:15 AM 75.2 °F - 50.0 °F 41% 29.91 in 10.0 mi Calm Calm - N/A   Clear
7:35 AM 78.8 °F - 50.0 °F 36% 29.92 in 10.0 mi Calm Calm - N/A   Clear
7:55 AM 78.8 °F - 50.0 °F 36% 29.92 in 10.0 mi Calm Calm - N/A   Clear
8:15 AM 80.6 °F - 51.8 °F 37% 29.92 in 10.0 mi Calm Calm - N/A   Clear
8:35 AM 82.4 °F - 51.8 °F 35% 29.92 in 10.0 mi Calm Calm - N/A   Clear
8:55 AM 84.2 °F - 51.8 °F 33% 29.92 in 10.0 mi Calm Calm - N/A   Clear
9:15 AM 86.0 °F - 51.8 °F 31% 29.92 in 9.0 mi Calm Calm - N/A   Clear
9:35 AM 87.8 °F - 51.8 °F 29% 29.92 in 10.0 mi Calm Calm - N/A   Clear
9:55 AM 87.8 °F - 50.0 °F 27% 29.92 in 9.0 mi Calm Calm - N/A   Clear
10:15 AM 89.6 °F - 48.2 °F 24% 29.92 in 10.0 mi Calm Calm - N/A   Clear
10:35 AM 91.4 °F - 48.2 °F 23% 29.92 in 7.0 mi Calm Calm - N/A   Clear
10:55 AM 91.4 °F - 50.0 °F 24% 29.92 in 8.0 mi Calm Calm - N/A   Clear
11:15 AM 93.2 °F - 50.0 °F 23% 29.92 in 9.0 mi Calm Calm - N/A   Clear
11:35 AM 93.2 °F - 51.8 °F 24% 29.92 in 9.0 mi Calm Calm - N/A   Clear
11:55 AM 93.2 °F - 51.8 °F 24% 29.91 in 10.0 mi Calm Calm - N/A   Clear
12:15 PM 95.0 °F - 51.8 °F 23% 29.91 in 9.0 mi Calm Calm - N/A   Clear
12:35 PM 96.8 °F - 51.8 °F 22% 29.90 in 9.0 mi SSW 4.6 mph - N/A   Clear
12:55 PM 95.0 °F - 51.8 °F 23% 29.89 in 10.0 mi Calm Calm - N/A   Clear
1:15 PM 96.8 °F - 50.0 °F 20% 29.89 in 10.0 mi Calm Calm 11.5 mph N/A   Clear
1:35 PM 96.8 °F - 51.8 °F 22% 29.88 in 10.0 mi SW 5.8 mph - N/A   Clear
1:55 PM 96.8 °F - 51.8 °F 22% 29.88 in 10.0 mi West 8.1 mph - N/A   Clear
2:15 PM 96.8 °F - 51.8 °F 22% 29.87 in 10.0 mi West 9.2 mph - N/A   Clear
2:35 PM 98.6 °F - 51.8 °F 21% 29.87 in 10.0 mi SSW 10.4 mph - N/A   Clear
2:55 PM 98.6 °F - 48.2 °F 18% 29.86 in 9.0 mi SW 8.1 mph - N/A   Clear
3:15 PM 98.6 °F - 48.2 °F 18% 29.85 in 10.0 mi SSW 4.6 mph 13.8 mph N/A   Clear
3:35 PM 98.6 °F - 48.2 °F 18% 29.84 in 10.0 mi SSW 8.1 mph - N/A   Clear
3:55 PM 98.6 °F - 48.2 °F 18% 29.84 in 10.0 mi SSW 8.1 mph - N/A   Clear
4:15 PM 98.6 °F - 48.2 °F 18% 29.84 in 10.0 mi SW 6.9 mph 13.8 mph N/A   Clear
4:35 PM 98.6 °F - 51.8 °F 21% 29.83 in 10.0 mi WSW 5.8 mph - N/A   Clear
4:55 PM 96.8 °F 94.4 °F 53.6 °F 23% 29.83 in 10.0 mi West 5.8 mph 13.8 mph N/A   Clear
5:15 PM 96.8 °F 94.4 °F 53.6 °F 23% 29.83 in 10.0 mi West 9.2 mph 15.0 mph N/A   Clear
5:35 PM 96.8 °F 94.4 °F 53.6 °F 23% 29.82 in 10.0 mi SW 5.8 mph 12.7 mph N/A   Clear
5:55 PM 95.0 °F 93.0 °F 55.4 °F 26% 29.82 in 10.0 mi West 6.9 mph - N/A   Clear
6:15 PM 95.0 °F 93.0 °F 55.4 °F 26% 29.82 in 10.0 mi West 5.8 mph - N/A   Clear
6:35 PM 93.2 °F 91.3 °F 55.4 °F 28% 29.82 in 10.0 mi West 5.8 mph - N/A   Clear
6:55 PM 93.2 °F 91.3 °F 55.4 °F 28% 29.82 in 10.0 mi Calm Calm - N/A   Clear
7:15 PM 91.4 °F 89.1 °F 53.6 °F 28% 29.82 in 10.0 mi Calm Calm - N/A   Clear
7:35 PM 89.6 °F 87.3 °F 53.6 °F 29% 29.81 in 10.0 mi Calm Calm - N/A   Clear
7:55 PM 84.2 °F 82.8 °F 53.6 °F 35% 29.81 in 10.0 mi Calm Calm - N/A   Clear
8:15 PM 80.6 °F - 51.8 °F 37% 29.82 in 10.0 mi Calm Calm - N/A   Clear
8:35 PM 78.8 °F - 51.8 °F 39% 29.82 in 10.0 mi Calm Calm - N/A   Clear
8:55 PM 84.2 °F 83.0 °F 55.4 °F 37% 29.82 in 10.0 mi Calm Calm - N/A   Clear
9:15 PM 84.2 °F 83.0 °F 55.4 °F 37% 29.82 in 10.0 mi Calm Calm - N/A   Clear
9:35 PM 82.4 °F 81.4 °F 53.6 °F 37% 29.83 in 10.0 mi Calm Calm - N/A   Clear
9:55 PM 80.6 °F 80.3 °F 53.6 °F 39% 29.83 in 10.0 mi Calm Calm - N/A   Clear
10:15 PM 82.4 °F - 51.8 °F 35% 29.82 in 10.0 mi Calm Calm - N/A   Clear
10:35 PM 82.4 °F 81.4 °F 53.6 °F 37% 29.83 in 10.0 mi ESE 6.9 mph - N/A   Clear
10:55 PM 80.6 °F - 51.8 °F 37% 29.82 in 10.0 mi ESE 9.2 mph - N/A   Clear
11:15 PM 78.8 °F - 51.8 °F 39% 29.82 in 10.0 mi East 8.1 mph - N/A   Clear
11:35 PM 78.8 °F - 50.0 °F 36% 29.82 in 10.0 mi East 6.9 mph - N/A   Clear
11:55 PM 77.0 °F - 50.0 °F 39% 29.82 in 10.0 mi East 8.1 mph - N/A   Clear